createdAt,value
2022-10-05T00:00:01.358Z,7.55
2022-10-05T00:00:11.873Z,7.58
2022-10-05T00:00:22.377Z,7.60
2022-10-05T00:00:32.883Z,7.61
2022-10-05T00:00:43.391Z,7.64
2022-10-05T00:00:53.896Z,7.61
2022-10-05T00:01:04.400Z,7.63
2022-10-05T00:01:14.926Z,7.63
2022-10-05T00:01:25.469Z,7.64
2022-10-05T00:01:35.966Z,7.64
2022-10-05T00:01:46.483Z,7.67
2022-10-05T00:01:57.008Z,7.67
2022-10-05T00:02:07.547Z,7.63
2022-10-05T00:02:17.955Z,7.67
2022-10-05T00:02:28.455Z,7.68
2022-10-05T00:02:38.960Z,7.68
2022-10-05T00:02:49.477Z,7.69
2022-10-05T00:02:59.989Z,7.71
2022-10-05T00:03:10.493Z,7.72
2022-10-05T00:03:20.992Z,7.74
2022-10-05T00:03:31.525Z,7.74
2022-10-05T00:03:42.012Z,7.77
2022-10-05T00:03:52.596Z,7.79
2022-10-05T00:04:03.214Z,7.79
2022-10-05T00:04:13.600Z,7.82
2022-10-05T00:04:24.038Z,7.83
2022-10-05T00:04:34.547Z,7.82
2022-10-05T00:04:45.115Z,7.80
2022-10-05T00:04:55.661Z,7.80
2022-10-05T00:05:06.126Z,7.82
2022-10-05T00:05:16.650Z,7.82
2022-10-05T00:05:27.174Z,7.80
2022-10-05T00:05:37.623Z,7.82
2022-10-05T00:05:48.102Z,7.80
2022-10-05T00:05:58.619Z,7.79
2022-10-05T00:06:09.107Z,7.79
2022-10-05T00:06:19.617Z,7.79
2022-10-05T00:06:30.123Z,7.77
2022-10-05T00:06:40.634Z,7.75
2022-10-05T00:06:51.144Z,7.77
2022-10-05T00:07:01.650Z,7.74
2022-10-05T00:07:12.150Z,7.74
2022-10-05T00:07:22.650Z,7.74
2022-10-05T00:07:33.167Z,7.74
2022-10-05T00:07:43.664Z,7.72
2022-10-05T00:07:54.203Z,7.71
2022-10-05T00:08:04.676Z,7.72
2022-10-05T00:08:15.194Z,7.71
2022-10-05T00:08:25.700Z,7.71
2022-10-05T00:08:36.215Z,7.71
2022-10-05T00:08:46.709Z,7.69
2022-10-05T00:08:57.227Z,7.68
2022-10-05T00:09:07.725Z,7.69
2022-10-05T00:09:18.235Z,7.68
2022-10-05T00:09:28.735Z,7.67
2022-10-05T00:09:39.252Z,7.67
2022-10-05T00:09:49.745Z,7.67
2022-10-05T00:10:00.264Z,7.63
2022-10-05T00:10:10.765Z,7.64
2022-10-05T00:10:21.276Z,7.64
2022-10-05T00:10:31.791Z,7.64
2022-10-05T00:10:42.290Z,7.63
2022-10-05T00:10:52.794Z,7.63
2022-10-05T00:11:03.299Z,7.63
2022-10-05T00:11:13.808Z,7.60
2022-10-05T00:11:24.316Z,7.60
2022-10-05T00:11:34.822Z,7.60
2022-10-05T00:11:45.326Z,7.58
2022-10-05T00:11:55.832Z,7.57
2022-10-05T00:12:06.343Z,7.58
2022-10-05T00:12:16.855Z,7.57
2022-10-05T00:12:27.359Z,7.57
2022-10-05T00:12:37.870Z,7.58
2022-10-05T00:12:48.390Z,7.55
2022-10-05T00:12:58.912Z,7.55
2022-10-05T00:13:09.395Z,7.53
2022-10-05T00:13:19.902Z,7.53
2022-10-05T00:13:30.405Z,7.53
2022-10-05T00:13:40.926Z,7.50
2022-10-05T00:13:51.427Z,7.52
2022-10-05T00:14:01.958Z,7.52
2022-10-05T00:14:12.432Z,7.49
2022-10-05T00:14:22.951Z,7.50
2022-10-05T00:14:33.452Z,7.49
2022-10-05T00:14:43.966Z,7.46
2022-10-05T00:14:54.474Z,7.46
2022-10-05T00:15:05.028Z,7.46
2022-10-05T00:15:15.479Z,7.45
2022-10-05T00:15:25.994Z,7.45
2022-10-05T00:15:36.495Z,7.42
2022-10-05T00:15:47.007Z,7.40
2022-10-05T00:15:57.528Z,7.40
2022-10-05T00:16:08.048Z,7.40
2022-10-05T00:16:18.575Z,7.39
2022-10-05T00:16:29.078Z,7.37
2022-10-05T00:16:39.659Z,7.39
2022-10-05T00:16:50.556Z,7.39
2022-10-05T00:17:00.644Z,7.37
2022-10-05T00:17:11.071Z,7.37
2022-10-05T00:17:21.575Z,7.35
2022-10-05T00:17:32.089Z,7.37
2022-10-05T00:17:42.590Z,7.37
2022-10-05T00:17:53.098Z,7.37
2022-10-05T00:18:03.608Z,7.37
2022-10-05T00:18:14.150Z,7.37
2022-10-05T00:18:24.631Z,7.34
2022-10-05T00:18:35.168Z,7.32
2022-10-05T00:18:45.643Z,7.34
2022-10-05T00:18:56.178Z,7.35
2022-10-05T00:19:06.662Z,7.35
2022-10-05T00:19:17.171Z,7.32
2022-10-05T00:19:27.670Z,7.35
2022-10-05T00:19:38.193Z,7.39
2022-10-05T00:19:48.686Z,7.39
2022-10-05T00:19:59.199Z,7.37
2022-10-05T00:20:09.713Z,7.40
2022-10-05T00:20:20.227Z,7.42
2022-10-05T00:20:30.724Z,7.42
2022-10-05T00:20:41.230Z,7.40
2022-10-05T00:20:51.739Z,7.42
2022-10-05T00:21:02.240Z,7.42
2022-10-05T00:21:12.790Z,7.40
2022-10-05T00:21:23.260Z,7.39
2022-10-05T00:21:33.766Z,7.39
2022-10-05T00:21:44.296Z,7.40
2022-10-05T00:21:54.774Z,7.40
2022-10-05T00:22:05.302Z,7.39
2022-10-05T00:22:15.819Z,7.39
2022-10-05T00:22:26.300Z,7.39
2022-10-05T00:22:36.812Z,7.39
2022-10-05T00:22:47.330Z,7.37
2022-10-05T00:22:57.831Z,7.37
2022-10-05T00:23:08.336Z,7.39
2022-10-05T00:23:18.836Z,7.37
2022-10-05T00:23:29.350Z,7.39
2022-10-05T00:23:39.849Z,7.39
2022-10-05T00:23:50.380Z,7.40
2022-10-05T00:24:00.892Z,7.39
2022-10-05T00:24:11.369Z,7.43
2022-10-05T00:24:21.876Z,7.43
2022-10-05T00:24:32.391Z,7.43
2022-10-05T00:24:42.889Z,7.40
2022-10-05T00:24:53.399Z,7.43
2022-10-05T00:25:03.904Z,7.42
2022-10-05T00:25:14.427Z,7.42
2022-10-05T00:25:24.922Z,7.42
2022-10-05T00:25:35.434Z,7.42
2022-10-05T00:25:45.944Z,7.42
2022-10-05T00:25:56.442Z,7.42
2022-10-05T00:26:06.952Z,7.42
2022-10-05T00:26:17.458Z,7.46
2022-10-05T00:26:27.964Z,7.46
2022-10-05T00:26:38.507Z,7.48
2022-10-05T00:26:52.717Z,7.49
2022-10-05T00:27:00.489Z,7.49
2022-10-05T00:27:10.003Z,7.50
2022-10-05T00:27:20.502Z,7.50
2022-10-05T00:27:31.015Z,7.53
2022-10-05T00:27:41.525Z,7.55
2022-10-05T00:27:52.104Z,7.58
2022-10-05T00:28:02.545Z,7.58
2022-10-05T00:28:13.089Z,7.60
2022-10-05T00:28:23.604Z,7.60
2022-10-05T00:28:34.196Z,7.60
2022-10-05T00:28:44.561Z,7.61
2022-10-05T00:28:55.078Z,7.61
2022-10-05T00:29:05.577Z,7.63
2022-10-05T00:29:16.097Z,7.60
2022-10-05T00:29:26.597Z,7.60
2022-10-05T00:29:37.104Z,7.60
2022-10-05T00:29:47.610Z,7.58
2022-10-05T00:29:58.119Z,7.58
2022-10-05T00:30:08.624Z,7.58
2022-10-05T00:30:19.133Z,7.57
2022-10-05T00:30:29.637Z,7.55
2022-10-05T00:30:40.157Z,7.57
2022-10-05T00:30:50.651Z,7.55
2022-10-05T00:31:01.169Z,7.53
2022-10-05T00:31:11.766Z,7.52
2022-10-05T00:31:22.253Z,7.53
2022-10-05T00:31:32.830Z,7.52
2022-10-05T00:31:43.222Z,7.52
2022-10-05T00:31:53.757Z,7.52
2022-10-05T00:32:04.307Z,7.52
2022-10-05T00:32:14.723Z,7.50
2022-10-05T00:32:25.225Z,7.52
2022-10-05T00:32:35.740Z,7.52
2022-10-05T00:32:46.255Z,7.53
2022-10-05T00:32:59.630Z,7.53
2022-10-05T00:33:07.258Z,7.49
2022-10-05T00:33:17.766Z,7.50
2022-10-05T00:33:28.274Z,7.50
2022-10-05T00:33:38.800Z,7.49
2022-10-05T00:33:49.289Z,7.48
2022-10-05T00:33:59.829Z,7.49
2022-10-05T00:34:10.313Z,7.48
2022-10-05T00:34:20.837Z,7.50
2022-10-05T00:34:31.351Z,7.49
2022-10-05T00:34:41.837Z,7.50
2022-10-05T00:34:52.353Z,7.48
2022-10-05T00:35:02.850Z,7.52
2022-10-05T00:35:13.353Z,7.48
2022-10-05T00:35:23.865Z,7.46
2022-10-05T00:35:34.384Z,7.46
2022-10-05T00:35:44.874Z,7.48
2022-10-05T00:35:55.390Z,7.45
2022-10-05T00:36:05.901Z,7.45
2022-10-05T00:36:16.406Z,7.46
2022-10-05T00:36:26.929Z,7.43
2022-10-05T00:36:37.420Z,7.42
2022-10-05T00:36:48.403Z,7.40
2022-10-05T00:36:58.435Z,7.40
2022-10-05T00:37:08.946Z,7.39
2022-10-05T00:37:19.455Z,7.37
2022-10-05T00:37:29.965Z,7.37
2022-10-05T00:37:40.471Z,7.37
2022-10-05T00:37:50.980Z,7.37
2022-10-05T00:38:01.483Z,7.34
2022-10-05T00:38:11.995Z,7.32
2022-10-05T00:38:22.532Z,7.32
2022-10-05T00:38:33.013Z,7.34
2022-10-05T00:38:43.526Z,7.32
2022-10-05T00:38:54.057Z,7.32
2022-10-05T00:39:04.539Z,7.30
2022-10-05T00:39:15.048Z,7.30
2022-10-05T00:39:25.551Z,7.30
2022-10-05T00:39:36.059Z,7.28
2022-10-05T00:39:46.567Z,7.28
2022-10-05T00:39:57.106Z,7.27
2022-10-05T00:40:07.581Z,7.27
2022-10-05T00:40:18.089Z,7.27
2022-10-05T00:40:28.607Z,7.24
2022-10-05T00:40:39.111Z,7.25
2022-10-05T00:40:49.624Z,7.24
2022-10-05T00:41:00.120Z,7.24
2022-10-05T00:41:10.638Z,7.23
2022-10-05T00:41:21.142Z,7.23
2022-10-05T00:41:31.696Z,7.23
2022-10-05T00:41:42.158Z,7.21
2022-10-05T00:41:52.665Z,7.23
2022-10-05T00:42:03.168Z,7.21
2022-10-05T00:42:13.681Z,7.21
2022-10-05T00:42:24.196Z,7.21
2022-10-05T00:42:34.695Z,7.21
2022-10-05T00:42:45.202Z,7.20
2022-10-05T00:42:55.720Z,7.21
2022-10-05T00:43:06.211Z,7.21
2022-10-05T00:43:16.722Z,7.20
2022-10-05T00:43:27.227Z,7.21
2022-10-05T00:43:37.740Z,7.17
2022-10-05T00:43:48.258Z,7.20
2022-10-05T00:43:58.762Z,7.17
2022-10-05T00:44:09.263Z,7.20
2022-10-05T00:44:19.790Z,7.17
2022-10-05T00:44:30.294Z,7.20
2022-10-05T00:44:40.792Z,7.20
2022-10-05T00:44:51.300Z,7.20
2022-10-05T00:45:01.805Z,7.20
2022-10-05T00:45:12.359Z,7.20
2022-10-05T00:45:22.818Z,7.20
2022-10-05T00:45:33.387Z,7.21
2022-10-05T00:45:43.875Z,7.23
2022-10-05T00:45:54.387Z,7.23
2022-10-05T00:46:04.999Z,7.24
2022-10-05T00:46:15.402Z,7.21
2022-10-05T00:46:25.873Z,7.23
2022-10-05T00:46:36.378Z,7.23
2022-10-05T00:46:47.290Z,7.23
2022-10-05T00:46:57.398Z,7.24
2022-10-05T00:47:07.913Z,7.24
2022-10-05T00:47:18.406Z,7.24
2022-10-05T00:47:28.916Z,7.24
2022-10-05T00:47:39.429Z,7.24
2022-10-05T00:47:49.935Z,7.24
2022-10-05T00:48:00.434Z,7.23
2022-10-05T00:48:10.952Z,7.24
2022-10-05T00:48:21.450Z,7.24
2022-10-05T00:48:31.965Z,7.24
2022-10-05T00:48:42.464Z,7.25
2022-10-05T00:48:52.979Z,7.24
2022-10-05T00:49:03.535Z,7.27
2022-10-05T00:49:13.992Z,7.25
2022-10-05T00:49:24.503Z,7.24
2022-10-05T00:49:35.009Z,7.23
2022-10-05T00:49:45.512Z,7.25
2022-10-05T00:49:56.023Z,7.25
2022-10-05T00:50:06.531Z,7.27
2022-10-05T00:50:17.070Z,7.28
2022-10-05T00:50:27.546Z,7.28
2022-10-05T00:50:38.060Z,7.30
2022-10-05T00:50:48.558Z,7.30
2022-10-05T00:50:59.074Z,7.28
2022-10-05T00:51:09.581Z,7.28
2022-10-05T00:51:20.120Z,7.28
2022-10-05T00:51:30.597Z,7.28
2022-10-05T00:51:41.111Z,7.28
2022-10-05T00:51:51.625Z,7.28
2022-10-05T00:52:02.128Z,7.28
2022-10-05T00:52:12.637Z,7.30
2022-10-05T00:52:23.145Z,7.31
2022-10-05T00:52:33.669Z,7.34
2022-10-05T00:52:44.191Z,7.35
2022-10-05T00:52:54.717Z,7.37
2022-10-05T00:53:05.186Z,7.37
2022-10-05T00:53:15.689Z,7.35
2022-10-05T00:53:26.207Z,7.37
2022-10-05T00:53:36.752Z,7.35
2022-10-05T00:53:47.226Z,7.39
2022-10-05T00:53:57.740Z,7.37
2022-10-05T00:54:08.239Z,7.39
2022-10-05T00:54:18.775Z,7.39
2022-10-05T00:54:29.259Z,7.39
2022-10-05T00:54:39.769Z,7.42
2022-10-05T00:54:50.282Z,7.43
2022-10-05T00:55:00.782Z,7.42
2022-10-05T00:55:11.293Z,7.43
2022-10-05T00:55:21.796Z,7.42
2022-10-05T00:55:32.309Z,7.45
2022-10-05T00:55:42.815Z,7.45
2022-10-05T00:55:53.327Z,7.46
2022-10-05T00:56:03.841Z,7.46
2022-10-05T00:56:14.344Z,7.48
2022-10-05T00:56:24.849Z,7.48
2022-10-05T00:56:35.362Z,7.45
2022-10-05T00:56:46.141Z,7.46
2022-10-05T00:56:56.374Z,7.45
2022-10-05T00:57:06.888Z,7.45
2022-10-05T00:57:17.396Z,7.45
2022-10-05T00:57:27.914Z,7.43
2022-10-05T00:57:38.425Z,7.43
2022-10-05T00:57:48.944Z,7.42
2022-10-05T00:57:59.440Z,7.45
2022-10-05T00:58:09.954Z,7.42
2022-10-05T00:58:20.471Z,7.40
2022-10-05T00:58:30.966Z,7.40
2022-10-05T00:58:41.479Z,7.40
2022-10-05T00:58:51.997Z,7.39
2022-10-05T00:59:02.499Z,7.39
2022-10-05T00:59:13.005Z,7.37
2022-10-05T00:59:23.516Z,7.39
2022-10-05T00:59:34.026Z,7.37
2022-10-05T00:59:44.538Z,7.35
2022-10-05T00:59:55.044Z,7.35
2022-10-05T01:00:05.568Z,7.35
2022-10-05T01:00:16.061Z,7.34
2022-10-05T01:00:26.575Z,7.32
2022-10-05T01:00:37.087Z,7.31
2022-10-05T01:00:47.667Z,7.30
2022-10-05T01:00:58.121Z,7.31
2022-10-05T01:01:08.716Z,7.30
2022-10-05T01:01:19.225Z,7.30
2022-10-05T01:01:29.671Z,7.28
2022-10-05T01:01:40.222Z,7.28
2022-10-05T01:01:50.715Z,7.28
2022-10-05T01:02:01.208Z,7.27
2022-10-05T01:02:11.692Z,7.28
2022-10-05T01:02:22.244Z,7.25
2022-10-05T01:02:36.653Z,7.27
2022-10-05T01:02:43.239Z,7.27
2022-10-05T01:02:53.738Z,7.27
2022-10-05T01:03:04.192Z,7.24
2022-10-05T01:03:14.709Z,7.25
2022-10-05T01:03:25.226Z,7.24
2022-10-05T01:03:35.726Z,7.24
2022-10-05T01:03:46.238Z,7.23
2022-10-05T01:03:56.745Z,7.23
2022-10-05T01:04:07.347Z,7.24
2022-10-05T01:04:17.760Z,7.24
2022-10-05T01:04:28.275Z,7.25
2022-10-05T01:04:38.812Z,7.25
2022-10-05T01:04:49.294Z,7.25
2022-10-05T01:04:59.806Z,7.25
2022-10-05T01:05:10.306Z,7.25
2022-10-05T01:05:20.817Z,7.27
2022-10-05T01:05:31.326Z,7.28
2022-10-05T01:05:41.847Z,7.25
2022-10-05T01:05:52.347Z,7.25
2022-10-05T01:06:02.874Z,7.25
2022-10-05T01:06:13.403Z,7.25
2022-10-05T01:06:23.876Z,7.25
2022-10-05T01:06:34.386Z,7.24
2022-10-05T01:06:45.289Z,7.25
2022-10-05T01:06:55.400Z,7.24
2022-10-05T01:07:05.910Z,7.24
2022-10-05T01:07:16.420Z,7.24
2022-10-05T01:07:26.924Z,7.25
2022-10-05T01:07:37.428Z,7.24
2022-10-05T01:07:47.948Z,7.25
2022-10-05T01:07:58.484Z,7.27
2022-10-05T01:08:08.962Z,7.25
2022-10-05T01:08:19.479Z,7.25
2022-10-05T01:08:29.986Z,7.25
2022-10-05T01:08:40.493Z,7.27
2022-10-05T01:08:50.999Z,7.27
2022-10-05T01:09:01.512Z,7.24
2022-10-05T01:09:12.027Z,7.24
2022-10-05T01:09:22.550Z,7.25
2022-10-05T01:09:33.041Z,7.24
2022-10-05T01:09:43.541Z,7.21
2022-10-05T01:09:54.055Z,7.21
2022-10-05T01:10:04.567Z,7.21
2022-10-05T01:10:15.076Z,7.21
2022-10-05T01:10:25.608Z,7.21
2022-10-05T01:10:36.095Z,7.21
2022-10-05T01:10:46.608Z,7.20
2022-10-05T01:10:57.128Z,7.17
2022-10-05T01:11:07.617Z,7.20
2022-10-05T01:11:18.138Z,7.17
2022-10-05T01:11:28.652Z,7.17
2022-10-05T01:11:39.157Z,7.15
2022-10-05T01:11:49.665Z,7.15
2022-10-05T01:12:00.174Z,7.13
2022-10-05T01:12:10.694Z,7.15
2022-10-05T01:12:21.195Z,7.12
2022-10-05T01:12:31.698Z,7.13
2022-10-05T01:12:42.214Z,7.13
2022-10-05T01:12:52.721Z,7.13
2022-10-05T01:13:03.235Z,7.12
2022-10-05T01:13:13.739Z,7.12
2022-10-05T01:13:24.248Z,7.10
2022-10-05T01:13:34.766Z,7.12
2022-10-05T01:13:45.277Z,7.13
2022-10-05T01:13:55.769Z,7.13
2022-10-05T01:14:06.288Z,7.13
2022-10-05T01:14:16.790Z,7.16
2022-10-05T01:14:27.342Z,7.16
2022-10-05T01:14:37.823Z,7.17
2022-10-05T01:14:48.338Z,7.20
2022-10-05T01:14:58.837Z,7.21
2022-10-05T01:15:09.347Z,7.21
2022-10-05T01:15:19.853Z,7.23
2022-10-05T01:15:30.378Z,7.23
2022-10-05T01:15:40.880Z,7.23
2022-10-05T01:15:51.375Z,7.24
2022-10-05T01:16:01.928Z,7.23
2022-10-05T01:16:12.457Z,7.23
2022-10-05T01:16:22.945Z,7.23
2022-10-05T01:16:33.522Z,7.21
2022-10-05T01:16:44.477Z,7.20
2022-10-05T01:16:54.500Z,7.20
2022-10-05T01:17:04.941Z,7.17
2022-10-05T01:17:15.446Z,7.17
2022-10-05T01:17:25.948Z,7.20
2022-10-05T01:17:36.471Z,7.16
2022-10-05T01:17:46.960Z,7.16
2022-10-05T01:17:57.477Z,7.16
2022-10-05T01:18:07.976Z,7.16
2022-10-05T01:18:18.497Z,7.17
2022-10-05T01:18:28.997Z,7.17
2022-10-05T01:18:39.503Z,7.20
2022-10-05T01:18:50.010Z,7.20
2022-10-05T01:19:00.521Z,7.20
2022-10-05T01:19:11.041Z,7.21
2022-10-05T01:19:28.203Z,7.23
2022-10-05T01:19:32.074Z,7.21
2022-10-05T01:19:42.550Z,7.20
2022-10-05T01:19:53.077Z,7.20
2022-10-05T01:20:03.581Z,7.20
2022-10-05T01:20:14.081Z,7.20
2022-10-05T01:20:24.597Z,7.17
2022-10-05T01:20:35.105Z,7.17
2022-10-05T01:20:45.615Z,7.17
2022-10-05T01:20:56.116Z,7.20
2022-10-05T01:21:06.622Z,7.17
2022-10-05T01:21:17.120Z,7.17
2022-10-05T01:21:27.676Z,7.16
2022-10-05T01:21:38.141Z,7.16
2022-10-05T01:21:48.656Z,7.16
2022-10-05T01:21:59.168Z,7.16
2022-10-05T01:22:09.683Z,7.15
2022-10-05T01:22:20.180Z,7.16
2022-10-05T01:22:30.691Z,7.15
2022-10-05T01:22:41.199Z,7.15
2022-10-05T01:22:51.725Z,7.15
2022-10-05T01:23:02.212Z,7.13
2022-10-05T01:23:12.734Z,7.13
2022-10-05T01:23:23.240Z,7.13
2022-10-05T01:23:33.748Z,7.15
2022-10-05T01:23:44.254Z,7.15
2022-10-05T01:23:54.767Z,7.12
2022-10-05T01:24:05.274Z,7.13
2022-10-05T01:24:15.796Z,7.13
2022-10-05T01:24:26.296Z,7.12
2022-10-05T01:24:36.804Z,7.12
2022-10-05T01:24:47.324Z,7.10
2022-10-05T01:24:57.819Z,7.09
2022-10-05T01:25:08.327Z,7.10
2022-10-05T01:25:18.834Z,7.09
2022-10-05T01:25:29.360Z,7.07
2022-10-05T01:25:39.855Z,7.06
2022-10-05T01:25:50.353Z,7.05
2022-10-05T01:26:00.869Z,7.05
2022-10-05T01:26:11.380Z,7.02
2022-10-05T01:26:21.895Z,7.03
2022-10-05T01:26:32.393Z,6.99
2022-10-05T01:26:43.277Z,6.99
2022-10-05T01:26:53.411Z,6.98
2022-10-05T01:27:03.928Z,6.97
2022-10-05T01:27:14.422Z,6.98
2022-10-05T01:27:24.932Z,6.98
2022-10-05T01:27:35.440Z,6.97
2022-10-05T01:27:45.954Z,6.98
2022-10-05T01:27:56.496Z,6.97
2022-10-05T01:28:07.019Z,6.98
2022-10-05T01:28:17.527Z,6.95
2022-10-05T01:28:28.025Z,6.97
2022-10-05T01:28:38.575Z,6.97
2022-10-05T01:28:48.999Z,6.98
2022-10-05T01:28:59.501Z,6.97
2022-10-05T01:29:10.008Z,6.97
2022-10-05T01:29:20.519Z,6.95
2022-10-05T01:29:31.020Z,6.95
2022-10-05T01:29:41.528Z,6.95
2022-10-05T01:29:52.039Z,6.97
2022-10-05T01:30:02.543Z,6.95
2022-10-05T01:30:13.066Z,6.94
2022-10-05T01:30:23.570Z,6.95
2022-10-05T01:30:34.067Z,6.97
2022-10-05T01:30:44.580Z,6.95
2022-10-05T01:30:55.082Z,6.94
2022-10-05T01:31:05.634Z,6.95
2022-10-05T01:31:16.199Z,6.94
2022-10-05T01:31:26.712Z,6.94
2022-10-05T01:31:37.196Z,6.95
2022-10-05T01:31:47.717Z,6.95
2022-10-05T01:31:58.205Z,6.97
2022-10-05T01:32:08.650Z,6.97
2022-10-05T01:32:19.178Z,6.97
2022-10-05T01:32:29.662Z,6.97
2022-10-05T01:32:40.179Z,6.95
2022-10-05T01:32:50.679Z,6.97
2022-10-05T01:33:01.188Z,6.97
2022-10-05T01:33:11.698Z,6.95
2022-10-05T01:33:22.208Z,6.95
2022-10-05T01:33:32.708Z,6.94
2022-10-05T01:33:43.220Z,6.95
2022-10-05T01:33:53.725Z,6.97
2022-10-05T01:34:07.841Z,6.95
2022-10-05T01:34:15.767Z,6.98
2022-10-05T01:34:25.256Z,6.97
2022-10-05T01:34:35.764Z,6.98
2022-10-05T01:34:46.263Z,6.99
2022-10-05T01:34:56.775Z,6.97
2022-10-05T01:35:07.281Z,6.98
2022-10-05T01:35:17.790Z,6.97
2022-10-05T01:35:28.309Z,6.98
2022-10-05T01:35:38.810Z,6.97
2022-10-05T01:35:49.323Z,6.97
2022-10-05T01:35:59.845Z,6.97
2022-10-05T01:36:10.340Z,6.95
2022-10-05T01:36:20.871Z,6.95
2022-10-05T01:36:31.352Z,6.95
2022-10-05T01:36:41.862Z,6.94
2022-10-05T01:36:52.368Z,6.92
2022-10-05T01:37:02.884Z,6.94
2022-10-05T01:37:13.395Z,6.92
2022-10-05T01:37:23.896Z,6.91
2022-10-05T01:37:34.406Z,6.91
2022-10-05T01:37:44.912Z,6.91
2022-10-05T01:37:55.450Z,6.91
2022-10-05T01:38:05.931Z,6.91
2022-10-05T01:38:16.444Z,6.92
2022-10-05T01:38:26.947Z,6.92
2022-10-05T01:38:37.453Z,6.92
2022-10-05T01:38:47.968Z,6.92
2022-10-05T01:38:58.473Z,6.92
2022-10-05T01:39:08.992Z,6.91
2022-10-05T01:39:19.496Z,6.91
2022-10-05T01:39:30.003Z,6.92
2022-10-05T01:39:40.518Z,6.92
2022-10-05T01:39:51.018Z,6.92
2022-10-05T01:40:01.539Z,6.92
2022-10-05T01:40:12.035Z,6.92
2022-10-05T01:40:22.547Z,6.92
2022-10-05T01:40:33.057Z,6.92
2022-10-05T01:40:43.569Z,6.91
2022-10-05T01:40:54.080Z,6.91
2022-10-05T01:41:04.574Z,6.91
2022-10-05T01:41:15.089Z,6.91
2022-10-05T01:41:25.593Z,6.89
2022-10-05T01:41:36.097Z,6.91
2022-10-05T01:41:46.609Z,6.89
2022-10-05T01:41:57.124Z,6.91
2022-10-05T01:42:07.665Z,6.91
2022-10-05T01:42:18.130Z,6.92
2022-10-05T01:42:28.638Z,6.89
2022-10-05T01:42:39.147Z,6.89
2022-10-05T01:42:49.651Z,6.89
2022-10-05T01:43:00.156Z,6.91
2022-10-05T01:43:10.663Z,6.92
2022-10-05T01:43:21.177Z,6.92
2022-10-05T01:43:31.685Z,6.94
2022-10-05T01:43:42.215Z,6.92
2022-10-05T01:43:52.737Z,6.92
2022-10-05T01:44:03.219Z,6.89
2022-10-05T01:44:13.724Z,6.91
2022-10-05T01:44:24.231Z,6.89
2022-10-05T01:44:34.746Z,6.89
2022-10-05T01:44:45.253Z,6.91
2022-10-05T01:44:55.765Z,6.91
2022-10-05T01:45:06.268Z,6.92
2022-10-05T01:45:16.777Z,6.92
2022-10-05T01:45:27.336Z,6.92
2022-10-05T01:45:37.894Z,6.94
2022-10-05T01:45:48.401Z,6.92
2022-10-05T01:45:58.989Z,6.94
2022-10-05T01:46:09.357Z,6.94
2022-10-05T01:46:19.904Z,6.91
2022-10-05T01:46:30.335Z,6.92
2022-10-05T01:46:40.840Z,6.91
2022-10-05T01:46:51.350Z,6.91
2022-10-05T01:47:01.854Z,6.91
2022-10-05T01:47:12.406Z,6.91
2022-10-05T01:47:22.873Z,6.92
2022-10-05T01:47:33.392Z,6.91
2022-10-05T01:47:43.891Z,6.91
2022-10-05T01:47:54.403Z,6.91
2022-10-05T01:48:04.903Z,6.91
2022-10-05T01:48:15.412Z,6.91
2022-10-05T01:48:25.930Z,6.89
2022-10-05T01:48:36.450Z,6.89
2022-10-05T01:48:46.937Z,6.91
2022-10-05T01:48:57.443Z,6.88
2022-10-05T01:49:07.956Z,6.88
2022-10-05T01:49:18.476Z,6.87
2022-10-05T01:49:28.961Z,6.87
2022-10-05T01:49:39.475Z,6.88
2022-10-05T01:49:49.985Z,6.88
2022-10-05T01:50:00.494Z,6.88
2022-10-05T01:50:11.001Z,6.88
2022-10-05T01:50:21.517Z,6.87
2022-10-05T01:50:32.032Z,6.87
2022-10-05T01:50:42.528Z,6.87
2022-10-05T01:50:53.044Z,6.87
2022-10-05T01:51:03.555Z,6.87
2022-10-05T01:51:14.060Z,6.87
2022-10-05T01:51:24.586Z,6.85
2022-10-05T01:51:35.074Z,6.89
2022-10-05T01:51:45.608Z,6.88
2022-10-05T01:51:56.099Z,6.87
2022-10-05T01:52:06.611Z,6.87
2022-10-05T01:52:17.129Z,6.88
2022-10-05T01:52:27.624Z,6.87
2022-10-05T01:52:38.133Z,6.85
2022-10-05T01:52:48.675Z,6.85
2022-10-05T01:52:59.156Z,6.87
2022-10-05T01:53:09.663Z,6.87
2022-10-05T01:53:20.177Z,6.85
2022-10-05T01:53:30.684Z,6.85
2022-10-05T01:53:41.190Z,6.84
2022-10-05T01:53:51.718Z,6.85
2022-10-05T01:54:02.207Z,6.85
2022-10-05T01:54:12.712Z,6.84
2022-10-05T01:54:23.228Z,6.84
2022-10-05T01:54:33.741Z,6.81
2022-10-05T01:54:44.236Z,6.84
2022-10-05T01:54:54.748Z,6.84
2022-10-05T01:55:05.260Z,6.84
2022-10-05T01:55:15.783Z,6.84
2022-10-05T01:55:26.276Z,6.81
2022-10-05T01:55:36.818Z,6.85
2022-10-05T01:55:47.287Z,6.87
2022-10-05T01:55:57.798Z,6.85
2022-10-05T01:56:08.303Z,6.87
2022-10-05T01:56:18.825Z,6.89
2022-10-05T01:56:29.327Z,6.87
2022-10-05T01:56:39.834Z,6.89
2022-10-05T01:56:50.343Z,6.89
2022-10-05T01:57:00.858Z,6.88
2022-10-05T01:57:11.370Z,6.88
2022-10-05T01:57:21.874Z,6.88
2022-10-05T01:57:32.395Z,6.88
2022-10-05T01:57:42.895Z,6.87
2022-10-05T01:57:53.405Z,6.88
2022-10-05T01:58:03.918Z,6.89
2022-10-05T01:58:14.430Z,6.89
2022-10-05T01:58:24.948Z,6.89
2022-10-05T01:58:35.444Z,6.89
2022-10-05T01:58:45.961Z,6.91
2022-10-05T01:58:56.471Z,6.91
2022-10-05T01:59:06.983Z,6.89
2022-10-05T01:59:17.488Z,6.92
2022-10-05T01:59:27.998Z,6.91
2022-10-05T01:59:38.508Z,6.91
2022-10-05T01:59:49.012Z,6.91
2022-10-05T01:59:59.518Z,6.92
2022-10-05T02:00:10.030Z,6.91
2022-10-05T02:00:20.566Z,6.91
2022-10-05T02:00:31.047Z,6.91
2022-10-05T02:00:41.556Z,6.89
2022-10-05T02:00:52.145Z,6.91
2022-10-05T02:01:02.673Z,6.91
2022-10-05T02:01:13.161Z,6.92
2022-10-05T02:01:23.666Z,6.92
2022-10-05T02:01:34.178Z,6.92
2022-10-05T02:01:44.629Z,6.91
2022-10-05T02:01:55.165Z,6.92
2022-10-05T02:02:05.690Z,6.91
2022-10-05T02:02:16.222Z,6.92
2022-10-05T02:02:26.739Z,6.92
2022-10-05T02:02:37.219Z,6.92
2022-10-05T02:02:47.677Z,6.91
2022-10-05T02:02:58.197Z,6.92
2022-10-05T02:03:08.700Z,6.89
2022-10-05T02:03:19.204Z,6.92
2022-10-05T02:03:29.711Z,6.91
2022-10-05T02:03:40.212Z,6.89
2022-10-05T02:03:50.739Z,6.89
2022-10-05T02:04:01.230Z,6.88
2022-10-05T02:04:15.163Z,6.91
2022-10-05T02:04:56.455Z,6.89
2022-10-05T02:05:01.329Z,6.88
2022-10-05T02:05:01.801Z,6.88
2022-10-05T02:05:02.664Z,6.89
2022-10-05T02:05:05.286Z,6.89
2022-10-05T02:05:14.783Z,6.88
2022-10-05T02:05:25.288Z,6.89
2022-10-05T02:05:35.806Z,6.88
2022-10-05T02:05:46.308Z,6.88
2022-10-05T02:05:56.810Z,6.88
2022-10-05T02:06:07.326Z,6.88
2022-10-05T02:06:17.827Z,6.87
2022-10-05T02:06:28.329Z,6.87
2022-10-05T02:06:38.869Z,6.87
2022-10-05T02:06:49.581Z,6.85
2022-10-05T02:06:59.860Z,6.87
2022-10-05T02:07:10.360Z,6.85
2022-10-05T02:07:20.871Z,6.85
2022-10-05T02:07:31.375Z,6.85
2022-10-05T02:07:41.878Z,6.87
2022-10-05T02:07:52.385Z,6.87
2022-10-05T02:08:02.895Z,6.87
2022-10-05T02:08:13.407Z,6.87
2022-10-05T02:08:23.938Z,6.85
2022-10-05T02:08:34.419Z,6.85
2022-10-05T02:08:44.915Z,6.85
2022-10-05T02:08:55.432Z,6.87
2022-10-05T02:09:05.927Z,6.88
2022-10-05T02:09:16.443Z,6.87
2022-10-05T02:09:26.946Z,6.85
2022-10-05T02:09:37.453Z,6.88
2022-10-05T02:09:47.957Z,6.88
2022-10-05T02:09:58.456Z,6.89
2022-10-05T02:10:08.965Z,6.88
2022-10-05T02:10:19.505Z,6.87
2022-10-05T02:10:29.981Z,6.87
2022-10-05T02:10:40.519Z,6.88
2022-10-05T02:10:50.994Z,6.87
2022-10-05T02:11:01.502Z,6.87
2022-10-05T02:11:12.006Z,6.88
2022-10-05T02:11:22.507Z,6.87
2022-10-05T02:11:33.013Z,6.88
2022-10-05T02:11:43.524Z,6.87
2022-10-05T02:11:54.031Z,6.87
2022-10-05T02:12:04.544Z,6.85
2022-10-05T02:12:15.041Z,6.85
2022-10-05T02:12:25.547Z,6.85
2022-10-05T02:12:36.063Z,6.85
2022-10-05T02:12:46.561Z,6.87
2022-10-05T02:12:57.074Z,6.89
2022-10-05T02:13:07.571Z,6.89
2022-10-05T02:13:18.081Z,6.91
2022-10-05T02:13:28.580Z,6.91
2022-10-05T02:13:39.098Z,6.92
2022-10-05T02:13:49.613Z,6.91
2022-10-05T02:14:00.107Z,6.92
2022-10-05T02:14:10.611Z,6.92
2022-10-05T02:14:21.127Z,6.91
2022-10-05T02:14:31.631Z,6.92
2022-10-05T02:14:42.165Z,6.92
2022-10-05T02:14:52.643Z,6.92
2022-10-05T02:15:03.156Z,6.92
2022-10-05T02:15:13.670Z,6.94
2022-10-05T02:15:24.185Z,6.95
2022-10-05T02:15:34.762Z,6.97
2022-10-05T02:15:45.204Z,6.97
2022-10-05T02:15:55.779Z,6.95
2022-10-05T02:16:06.240Z,6.95
2022-10-05T02:16:16.782Z,6.95
2022-10-05T02:16:27.311Z,6.95
2022-10-05T02:16:37.720Z,6.97
2022-10-05T02:16:48.720Z,6.94
2022-10-05T02:16:58.731Z,6.95
2022-10-05T02:17:09.248Z,6.95
2022-10-05T02:17:19.744Z,6.97
2022-10-05T02:17:30.255Z,6.95
2022-10-05T02:17:40.760Z,6.94
2022-10-05T02:17:51.277Z,6.92
2022-10-05T02:18:01.778Z,6.92
2022-10-05T02:18:12.282Z,6.91
2022-10-05T02:18:22.787Z,6.94
2022-10-05T02:18:33.311Z,6.92
2022-10-05T02:18:43.805Z,6.91
2022-10-05T02:18:54.309Z,6.91
2022-10-05T02:19:04.810Z,6.91
2022-10-05T02:19:15.323Z,6.91
2022-10-05T02:19:25.861Z,6.89
2022-10-05T02:19:36.334Z,6.88
2022-10-05T02:19:46.849Z,6.88